sensor_id;sensor_type;location;lat;lon;timestamp;pressure;altitude;pressure_sealevel;temperature;humidity
25610;BME280;13479;49.044;8.716;2023-02-18T05:01:03;99840.53;;;13.25;67.95
25610;BME280;13479;49.044;8.716;2023-02-18T05:03:31;99829.22;;;13.33;67.55
25610;BME280;13479;49.044;8.716;2023-02-18T05:05:57;99835.78;;;13.28;67.77
25610;BME280;13479;49.044;8.716;2023-02-18T05:08:22;99840.97;;;13.30;67.53
25610;BME280;13479;49.044;8.716;2023-02-18T05:10:48;99842.81;;;13.29;67.55
25610;BME280;13479;49.044;8.716;2023-02-18T05:13:13;99805.28;;;13.21;67.92
25610;BME280;13479;49.044;8.716;2023-02-18T05:15:38;99828.75;;;13.27;67.64
25610;BME280;13479;49.044;8.716;2023-02-18T05:18:04;99816.22;;;13.18;67.80
25610;BME280;13479;49.044;8.716;2023-02-18T05:20:29;99793.19;;;13.17;68.11
25610;BME280;13479;49.044;8.716;2023-02-18T05:22:55;99786.41;;;13.13;68.50
25610;BME280;13479;49.044;8.716;2023-02-18T05:25:21;99784.06;;;13.20;68.28
25610;BME280;13479;49.044;8.716;2023-02-18T05:27:47;99796.31;;;13.22;68.25
25610;BME280;13479;49.044;8.716;2023-02-18T05:30:12;99784.22;;;13.18;68.67
25610;BME280;13479;49.044;8.716;2023-02-18T05:32:37;99772.09;;;13.14;68.73
25610;BME280;13479;49.044;8.716;2023-02-18T05:35:03;99761.72;;;13.11;68.67
25610;BME280;13479;49.044;8.716;2023-02-18T05:37:28;99751.56;;;13.05;69.01
25610;BME280;13479;49.044;8.716;2023-02-18T05:39:53;99753.41;;;13.04;69.47
25610;BME280;13479;49.044;8.716;2023-02-18T05:42:18;99751.31;;;13.08;69.12
25610;BME280;13479;49.044;8.716;2023-02-18T05:44:44;99780.03;;;13.25;67.97
25610;BME280;13479;49.044;8.716;2023-02-18T05:47:11;99779.66;;;13.09;68.50
25610;BME280;13479;49.044;8.716;2023-02-18T05:49:38;99765.38;;;13.10;68.80
25610;BME280;13479;49.044;8.716;2023-02-18T05:52:04;99765.38;;;13.10;68.93
25610;BME280;13479;49.044;8.716;2023-02-18T05:54:29;99769.41;;;13.04;69.01
25610;BME280;13479;49.044;8.716;2023-02-18T05:56:55;99771.78;;;13.07;69.23
25610;BME280;13479;49.044;8.716;2023-02-18T05:59:20;99768.44;;;13.05;69.11
25610;BME280;13479;49.044;8.716;2023-02-18T06:01:46;99761.97;;;13.08;69.22
25610;BME280;13479;49.044;8.716;2023-02-18T06:04:12;99755.94;;;13.06;69.39
25610;BME280;13479;49.044;8.716;2023-02-18T06:06:38;99764.41;;;13.11;68.66
25610;BME280;13479;49.044;8.716;2023-02-18T06:09:04;99792.06;;;13.20;68.43
25610;BME280;13479;49.044;8.716;2023-02-18T06:11:30;99818.41;;;13.13;68.53
25610;BME280;13479;49.044;8.716;2023-02-18T06:13:55;99821.78;;;13.15;68.10
25610;BME280;13479;49.044;8.716;2023-02-18T06:16:20;99810.28;;;13.15;68.08
25610;BME280;13479;49.044;8.716;2023-02-18T06:18:46;99828.56;;;13.19;67.83
25610;BME280;13479;49.044;8.716;2023-02-18T06:21:11;99819.72;;;13.19;68.09
25610;BME280;13479;49.044;8.716;2023-02-18T06:23:36;99826.88;;;13.18;67.54
25610;BME280;13479;49.044;8.716;2023-02-18T06:26:02;99821.78;;;13.15;68.00
25610;BME280;13479;49.044;8.716;2023-02-18T06:28:27;99820.09;;;13.14;68.19
25610;BME280;13479;49.044;8.716;2023-02-18T06:30:52;99813.34;;;13.10;68.08
25610;BME280;13479;49.044;8.716;2023-02-18T06:33:18;99796.16;;;13.03;68.47
25610;BME280;13479;49.044;8.716;2023-02-18T06:35:59;99788.97;;;13.15;68.13
25610;BME280;13479;49.044;8.716;2023-02-18T06:38:25;99798.28;;;13.20;68.12
25610;BME280;13479;49.044;8.716;2023-02-18T06:40:51;99810.88;;;13.18;68.19
25610;BME280;13479;49.044;8.716;2023-02-18T06:43:18;99833.69;;;13.32;67.59
25610;BME280;13479;49.044;8.716;2023-02-18T06:45:44;99829.47;;;13.29;67.46
25610;BME280;13479;49.044;8.716;2023-02-18T06:48:09;99835.78;;;13.28;67.18
25610;BME280;13479;49.044;8.716;2023-02-18T06:50:34;99823.03;;;13.32;67.34
25610;BME280;13479;49.044;8.716;2023-02-18T06:52:59;99830.91;;;13.34;67.32
25610;BME280;13479;49.044;8.716;2023-02-18T06:55:25;99823.03;;;13.32;67.05
25610;BME280;13479;49.044;8.716;2023-02-18T06:57:50;99816.56;;;13.35;67.21
25610;BME280;13479;49.044;8.716;2023-02-18T07:00:15;99827.25;;;13.35;67.07
25610;BME280;13479;49.044;8.716;2023-02-18T07:02:41;99809.59;;;13.34;67.01
25610;BME280;13479;49.044;8.716;2023-02-18T07:05:06;99804.91;;;13.47;66.70
25610;BME280;13479;49.044;8.716;2023-02-18T07:07:31;99842.44;;;13.55;66.08
25610;BME280;13479;49.044;8.716;2023-02-18T07:09:57;99833.84;;;13.52;66.16
25610;BME280;13479;49.044;8.716;2023-02-18T07:12:22;99825.47;;;13.56;66.12
25610;BME280;13479;49.044;8.716;2023-02-18T07:14:47;99825.47;;;13.56;65.99
25610;BME280;13479;49.044;8.716;2023-02-18T07:17:12;99817.66;;;13.65;65.22
25610;BME280;13479;49.044;8.716;2023-02-18T07:19:38;99825.00;;;13.72;64.79
25610;BME280;13479;49.044;8.716;2023-02-18T07:22:04;99809.56;;;13.76;64.45
25610;BME280;13479;49.044;8.716;2023-02-18T07:24:29;99793.53;;;13.76;64.17
25610;BME280;13479;49.044;8.716;2023-02-18T07:26:54;99804.94;;;13.88;64.02
25610;BME280;13479;49.044;8.716;2023-02-18T07:29:19;99807.66;;;13.98;62.94
25610;BME280;13479;49.044;8.716;2023-02-18T07:31:45;99810.75;;;14.03;62.65
25610;BME280;13479;49.044;8.716;2023-02-18T07:34:10;99795.34;;;14.07;62.60
25610;BME280;13479;49.044;8.716;2023-02-18T07:36:35;99800.69;;;14.16;61.55
25610;BME280;13479;49.044;8.716;2023-02-18T07:39:00;99785.66;;;14.15;61.73
25610;BME280;13479;49.044;8.716;2023-02-18T07:41:26;99769.78;;;14.14;61.61
25610;BME280;13479;49.044;8.716;2023-02-18T07:43:51;99774.25;;;14.13;61.76
25610;BME280;13479;49.044;8.716;2023-02-18T07:46:16;99785.00;;;14.33;60.37
25610;BME280;13479;49.044;8.716;2023-02-18T07:48:42;99777.69;;;14.35;60.33
25610;BME280;13479;49.044;8.716;2023-02-18T07:51:09;99772.06;;;14.38;59.84
25610;BME280;13479;49.044;8.716;2023-02-18T07:53:35;99770.38;;;14.37;60.19
25610;BME280;13479;49.044;8.716;2023-02-18T07:56:01;99772.91;;;14.48;59.48
25610;BME280;13479;49.044;8.716;2023-02-18T07:58:29;99761.09;;;14.41;59.78
25610;BME280;13479;49.044;8.716;2023-02-18T08:00:56;99758.84;;;14.56;59.34
25610;BME280;13479;49.044;8.716;2023-02-18T08:03:23;99770.81;;;14.62;59.10
25610;BME280;13479;49.044;8.716;2023-02-18T08:05:49;99774.09;;;14.85;58.43
25610;BME280;13479;49.044;8.716;2023-02-18T08:08:20;99759.72;;;14.96;57.97
25610;BME280;13479;49.044;8.716;2023-02-18T08:10:47;99777.56;;;15.05;57.35
25610;BME280;13479;49.044;8.716;2023-02-18T08:13:12;99769.84;;;15.02;57.19
25610;BME280;13479;49.044;8.716;2023-02-18T08:15:38;99759.16;;;15.02;57.22
25610;BME280;13479;49.044;8.716;2023-02-18T08:18:05;99763.34;;;15.14;56.83
25610;BME280;13479;49.044;8.716;2023-02-18T08:20:35;99760.25;;;15.09;56.90
25610;BME280;13479;49.044;8.716;2023-02-18T08:23:00;99768.69;;;15.14;56.50
25610;BME280;13479;49.044;8.716;2023-02-18T08:25:26;99753.66;;;15.04;56.81
25610;BME280;13479;49.044;8.716;2023-02-18T08:27:51;99759.84;;;15.04;56.75
25610;BME280;13479;49.044;8.716;2023-02-18T08:30:17;99765.88;;;15.06;56.97
25610;BME280;13479;49.044;8.716;2023-02-18T08:32:45;99748.59;;;15.10;56.62
25610;BME280;13479;49.044;8.716;2023-02-18T08:35:11;99744.94;;;14.92;57.11
25610;BME280;13479;49.044;8.716;2023-02-18T08:37:36;99704.00;;;14.91;57.72
25610;BME280;13479;49.044;8.716;2023-02-18T08:40:05;99717.63;;;14.98;57.06
25610;BME280;13479;49.044;8.716;2023-02-18T08:42:30;99705.38;;;15.05;57.17
25610;BME280;13479;49.044;8.716;2023-02-18T08:44:56;99712.13;;;15.09;57.25
25610;BME280;13479;49.044;8.716;2023-02-18T08:47:21;99718.88;;;15.13;57.32
25610;BME280;13479;49.044;8.716;2023-02-18T08:49:46;99710.28;;;15.10;57.74
25610;BME280;13479;49.044;8.716;2023-02-18T08:52:11;99729.00;;;15.20;56.92
25610;BME280;13479;49.044;8.716;2023-02-18T08:54:37;99708.28;;;15.22;57.78
25610;BME280;13479;49.044;8.716;2023-02-18T08:57:02;99712.94;;;15.29;57.38
25610;BME280;13479;49.044;8.716;2023-02-18T08:59:27;99738.63;;;15.40;56.67
25610;BME280;13479;49.044;8.716;2023-02-18T09:01:53;99755.94;;;15.46;56.21
25610;BME280;13479;49.044;8.716;2023-02-18T09:04:18;99746.13;;;15.37;56.28
25610;BME280;13479;49.044;8.716;2023-02-18T09:06:45;99724.72;;;15.37;56.56
25610;BME280;13479;49.044;8.716;2023-02-18T09:09:11;99733.44;;;15.39;56.35
25610;BME280;13479;49.044;8.716;2023-02-18T09:11:36;99738.09;;;15.37;56.63
25610;BME280;13479;49.044;8.716;2023-02-18T09:14:01;99733.47;;;15.29;56.93
25610;BME280;13479;49.044;8.716;2023-02-18T09:16:27;99734.88;;;15.33;56.44
25610;BME280;13479;49.044;8.716;2023-02-18T09:18:54;99717.84;;;15.24;56.60
25610;BME280;13479;49.044;8.716;2023-02-18T09:21:20;99739.41;;;15.23;56.36
25610;BME280;13479;49.044;8.716;2023-02-18T09:23:46;99720.13;;;15.19;56.88
25610;BME280;13479;49.044;8.716;2023-02-18T09:26:14;99725.91;;;15.14;56.89
25610;BME280;13479;49.044;8.716;2023-02-18T09:28:40;99703.81;;;15.12;57.12
25610;BME280;13479;49.044;8.716;2023-02-18T09:31:07;99697.78;;;15.10;57.05
25610;BME280;13479;49.044;8.716;2023-02-18T09:33:37;99687.06;;;15.10;57.37
25610;BME280;13479;49.044;8.716;2023-02-18T09:36:03;99679.44;;;15.16;57.43
25610;BME280;13479;49.044;8.716;2023-02-18T09:38:29;99688.75;;;15.11;57.49
25610;BME280;13479;49.044;8.716;2023-02-18T09:40:55;99671.03;;;15.10;57.51
25610;BME280;13479;49.044;8.716;2023-02-18T09:43:35;99683.69;;;15.08;57.63
25610;BME280;13479;49.044;8.716;2023-02-18T09:46:03;99663.13;;;15.09;57.49
25610;BME280;13479;49.044;8.716;2023-02-18T09:48:33;99673.56;;;15.12;57.72
25610;BME280;13479;49.044;8.716;2023-02-18T09:51:00;99664.69;;;15.11;57.78
25610;BME280;13479;49.044;8.716;2023-02-18T09:53:25;99670.44;;;15.17;57.64
25610;BME280;13479;49.044;8.716;2023-02-18T09:55:53;99690.56;;;15.21;56.85
25610;BME280;13479;49.044;8.716;2023-02-18T09:58:24;99728.72;;;15.23;56.90
25610;BME280;13479;49.044;8.716;2023-02-18T10:00:55;99744.22;;;15.19;56.89
25610;BME280;13479;49.044;8.716;2023-02-18T10:03:24;99707.88;;;15.17;56.77
25610;BME280;13479;49.044;8.716;2023-02-18T10:05:57;99743.66;;;15.06;57.00
25610;BME280;13479;49.044;8.716;2023-02-18T10:08:30;99722.56;;;14.93;57.36
25610;BME280;13479;49.044;8.716;2023-02-18T10:10:57;99705.97;;;14.89;57.56
25610;BME280;13479;49.044;8.716;2023-02-18T10:13:26;99684.63;;;14.79;58.19
25610;BME280;13479;49.044;8.716;2023-02-18T10:15:52;99669.97;;;14.83;58.30
25610;BME280;13479;49.044;8.716;2023-02-18T10:18:30;99654.78;;;14.74;58.53
25610;BME280;13479;49.044;8.716;2023-02-18T10:23:32;99662.66;;;14.76;58.46
25610;BME280;13479;49.044;8.716;2023-02-18T10:25:58;99651.72;;;14.69;58.90
25610;BME280;13479;49.044;8.716;2023-02-18T10:28:25;99660.97;;;14.65;59.16
25610;BME280;13479;49.044;8.716;2023-02-18T10:31:04;99652.13;;;14.74;59.16
25610;BME280;13479;49.044;8.716;2023-02-18T10:33:43;99657.91;;;14.79;59.26
25610;BME280;13479;49.044;8.716;2023-02-18T10:36:24;99664.34;;;14.87;58.50
25610;BME280;13479;49.044;8.716;2023-02-18T10:52:40;99641.16;;;14.77;59.31
25610;BME280;13479;49.044;8.716;2023-02-18T10:55:14;99639.31;;;14.78;59.44
25610;BME280;13479;49.044;8.716;2023-02-18T10:57:51;99656.06;;;14.80;59.42
25610;BME280;13479;49.044;8.716;2023-02-18T11:00:23;99661.56;;;14.78;59.06
25610;BME280;13479;49.044;8.716;2023-02-18T11:05:35;99645.34;;;14.80;59.64
25610;BME280;13479;49.044;8.716;2023-02-18T11:08:07;99658.72;;;14.90;58.97
25610;BME280;13479;49.044;8.716;2023-02-18T11:10:44;99672.19;;;14.88;59.28
25610;BME280;13479;49.044;8.716;2023-02-18T11:13:12;99663.19;;;14.99;59.11
25610;BME280;13479;49.044;8.716;2023-02-18T11:15:53;99698.06;;;15.07;58.56
25610;BME280;13479;49.044;8.716;2023-02-18T11:20:57;99700.38;;;15.30;58.09
25610;BME280;13479;49.044;8.716;2023-02-18T11:23:23;99745.03;;;15.29;57.64
25610;BME280;13479;49.044;8.716;2023-02-18T11:25:56;99714.91;;;15.18;58.31
25610;BME280;13479;49.044;8.716;2023-02-18T11:28:25;99721.38;;;15.25;57.98
25610;BME280;13479;49.044;8.716;2023-02-18T11:30:55;99706.88;;;15.18;58.23
25610;BME280;13479;49.044;8.716;2023-02-18T11:33:34;99700.84;;;15.16;58.25
25610;BME280;13479;49.044;8.716;2023-02-18T11:36:16;99709.28;;;15.21;58.24
25610;BME280;13479;49.044;8.716;2023-02-18T11:38:43;99676.91;;;15.24;58.67
25610;BME280;13479;49.044;8.716;2023-02-18T11:41:14;99690.94;;;15.26;58.38
25610;BME280;13479;49.044;8.716;2023-02-18T11:43:41;99674.50;;;15.21;58.75
25610;BME280;13479;49.044;8.716;2023-02-18T11:46:10;99670.84;;;15.22;58.65
25610;BME280;13479;49.044;8.716;2023-02-18T11:48:36;99681.94;;;15.27;58.30
25610;BME280;13479;49.044;8.716;2023-02-18T11:51:01;99676.31;;;15.30;58.22
25610;BME280;13479;49.044;8.716;2023-02-18T11:53:34;99705.34;;;15.25;58.27
25610;BME280;13479;49.044;8.716;2023-02-18T11:56:05;99684.78;;;15.16;58.72
25610;BME280;13479;49.044;8.716;2023-02-18T11:58:37;99682.13;;;15.16;58.24
25610;BME280;13479;49.044;8.716;2023-02-18T12:01:05;99663.84;;;15.11;58.99
25610;BME280;13479;49.044;8.716;2023-02-18T12:03:52;99690.13;;;15.16;58.09
25610;BME280;13479;49.044;8.716;2023-02-18T12:06:49;99672.47;;;15.05;58.84
25610;BME280;13479;49.044;8.716;2023-02-18T12:11:54;99654.72;;;15.04;58.41
25610;BME280;13479;49.044;8.716;2023-02-18T12:14:21;99658.81;;;14.98;58.72
25610;BME280;13479;49.044;8.716;2023-02-18T12:19:59;99678.06;;;15.11;58.05
25610;BME280;13479;49.044;8.716;2023-02-18T12:22:43;99695.22;;;15.09;58.07
25610;BME280;13479;49.044;8.716;2023-02-18T12:31:13;99672.72;;;15.11;58.30
25610;BME280;13479;49.044;8.716;2023-02-18T12:39:34;99646.78;;;15.22;58.17
25610;BME280;13479;49.044;8.716;2023-02-18T12:42:28;99662.38;;;15.26;57.71
25610;BME280;13479;49.044;8.716;2023-02-18T12:45:30;99664.63;;;15.31;57.37
25610;BME280;13479;49.044;8.716;2023-02-18T12:48:19;99662.63;;;15.33;57.61
25610;BME280;13479;49.044;8.716;2023-02-18T12:51:07;99649.97;;;15.35;58.00
25610;BME280;13479;49.044;8.716;2023-02-18T12:53:47;99650.31;;;15.50;57.73
25610;BME280;13479;49.044;8.716;2023-02-18T12:59:50;99670.22;;;15.66;56.81
25610;BME280;13479;49.044;8.716;2023-02-18T13:07:45;99620.38;;;15.65;56.61
25610;BME280;13479;49.044;8.716;2023-02-18T13:10:33;99606.53;;;15.69;56.70
25610;BME280;13479;49.044;8.716;2023-02-18T13:13:20;99637.75;;;15.79;55.94
25610;BME280;13479;49.044;8.716;2023-02-18T13:15:52;99625.53;;;15.94;55.69
25610;BME280;13479;49.044;8.716;2023-02-18T13:18:25;99619.50;;;15.92;54.94
25610;BME280;13479;49.044;8.716;2023-02-18T13:20:55;99643.06;;;16.06;54.17
25610;BME280;13479;49.044;8.716;2023-02-18T13:23:25;99633.22;;;16.07;54.01
25610;BME280;13479;49.044;8.716;2023-02-18T13:25:55;99614.53;;;15.97;54.54
25610;BME280;13479;49.044;8.716;2023-02-18T13:28:31;99605.19;;;16.01;54.80
25610;BME280;13479;49.044;8.716;2023-02-18T13:33:58;99557.81;;;16.02;54.88
25610;BME280;13479;49.044;8.716;2023-02-18T13:36:53;99561.19;;;16.04;54.96
25610;BME280;13479;49.044;8.716;2023-02-18T13:39:22;99579.78;;;16.05;54.86
25610;BME280;13479;49.044;8.716;2023-02-18T13:41:50;99615.59;;;16.04;53.47
25610;BME280;13479;49.044;8.716;2023-02-18T13:46:49;99609.94;;;16.08;51.93
25610;BME280;13479;49.044;8.716;2023-02-18T13:49:19;99582.56;;;16.14;51.83
25610;BME280;13479;49.044;8.716;2023-02-18T13:51:48;99602.88;;;16.06;50.83
25610;BME280;13479;49.044;8.716;2023-02-18T13:54:23;99591.13;;;15.99;50.58
25610;BME280;13479;49.044;8.716;2023-02-18T13:59:40;99564.94;;;15.93;50.84
25610;BME280;13479;49.044;8.716;2023-02-18T14:09:41;99591.22;;;16.34;48.34
25610;BME280;13479;49.044;8.716;2023-02-18T14:12:34;99613.34;;;16.36;47.40
25610;BME280;13479;49.044;8.716;2023-02-18T14:15:45;99613.06;;;16.39;46.75
25610;BME280;13479;49.044;8.716;2023-02-18T14:25:50;99595.59;;;16.35;46.79
25610;BME280;13479;49.044;8.716;2023-02-18T14:33:40;99576.09;;;16.06;46.83
25610;BME280;13479;49.044;8.716;2023-02-18T14:36:24;99604.28;;;15.93;46.78
25610;BME280;13479;49.044;8.716;2023-02-18T14:42:00;99556.13;;;15.65;47.22
25610;BME280;13479;49.044;8.716;2023-02-18T14:50:11;99571.41;;;15.54;47.07
25610;BME280;13479;49.044;8.716;2023-02-18T14:52:49;99573.66;;;15.59;47.10
25610;BME280;13479;49.044;8.716;2023-02-18T14:55:24;99589.31;;;15.72;46.88
25610;BME280;13479;49.044;8.716;2023-02-18T14:57:56;99576.72;;;15.82;46.59
25610;BME280;13479;49.044;8.716;2023-02-18T15:00:26;99597.06;;;15.93;46.84
25610;BME280;13479;49.044;8.716;2023-02-18T15:02:57;99571.38;;;16.00;46.60
25610;BME280;13479;49.044;8.716;2023-02-18T15:05:26;99576.09;;;16.06;46.17
25610;BME280;13479;49.044;8.716;2023-02-18T15:13:04;99591.50;;;15.86;46.72
25610;BME280;13479;49.044;8.716;2023-02-18T15:15:33;99567.44;;;15.77;47.02
25610;BME280;13479;49.044;8.716;2023-02-18T15:18:02;99549.88;;;15.74;47.02
25610;BME280;13479;49.044;8.716;2023-02-18T15:20:31;99550.31;;;15.69;47.20
25610;BME280;13479;49.044;8.716;2023-02-18T15:22:58;99526.00;;;15.63;47.93
25610;BME280;13479;49.044;8.716;2023-02-18T15:25:24;99514.38;;;15.54;48.02
25610;BME280;13479;49.044;8.716;2023-02-18T15:27:50;99497.03;;;15.58;47.88
25610;BME280;13479;49.044;8.716;2023-02-18T15:30:27;99477.31;;;15.59;48.23
25610;BME280;13479;49.044;8.716;2023-02-18T15:32:55;99483.56;;;15.50;48.19
25610;BME280;13479;49.044;8.716;2023-02-18T15:35:24;99486.22;;;15.50;48.53
25610;BME280;13479;49.044;8.716;2023-02-18T15:37:54;99481.09;;;15.38;48.86
25610;BME280;13479;49.044;8.716;2023-02-18T15:40:27;99484.47;;;15.40;48.72
25610;BME280;13479;49.044;8.716;2023-02-18T15:42:56;99494.09;;;15.33;49.01
25610;BME280;13479;49.044;8.716;2023-02-18T15:45:32;99495.69;;;15.26;49.23
25610;BME280;13479;49.044;8.716;2023-02-18T15:47:59;99485.44;;;15.21;49.09
25610;BME280;13479;49.044;8.716;2023-02-18T15:50:36;99487.22;;;15.12;49.96
25610;BME280;13479;49.044;8.716;2023-02-18T15:53:08;99484.13;;;15.07;49.97
25610;BME280;13479;49.044;8.716;2023-02-18T15:55:38;99495.53;;;15.09;49.92
25610;BME280;13479;49.044;8.716;2023-02-18T15:58:17;99503.84;;;15.06;49.99
25610;BME280;13479;49.044;8.716;2023-02-18T16:00:48;99495.13;;;15.04;50.38
25610;BME280;13479;49.044;8.716;2023-02-18T16:05:50;99492.81;;;14.91;50.23
25610;BME280;13479;49.044;8.716;2023-02-18T16:08:24;99496.91;;;14.86;50.61
25610;BME280;13479;49.044;8.716;2023-02-18T16:11:10;99484.78;;;14.63;51.32
25610;BME280;13479;49.044;8.716;2023-02-18T16:13:44;99476.19;;;14.60;51.86
25610;BME280;13479;49.044;8.716;2023-02-18T16:16:27;99478.47;;;14.55;51.88
25610;BME280;13479;49.044;8.716;2023-02-18T16:18:53;99472.00;;;14.47;51.91
25610;BME280;13479;49.044;8.716;2023-02-18T16:23:56;99480.34;;;14.44;51.99
25610;BME280;13479;49.044;8.716;2023-02-18T16:26:41;99487.41;;;14.26;52.39
25610;BME280;13479;49.044;8.716;2023-02-18T16:29:14;99482.94;;;14.16;53.25
25610;BME280;13479;49.044;8.716;2023-02-18T16:31:41;99472.53;;;14.13;53.17
25610;BME280;13479;49.044;8.716;2023-02-18T16:34:06;99474.38;;;14.13;52.99
25610;BME280;13479;49.044;8.716;2023-02-18T16:36:32;99492.09;;;14.04;53.29
25610;BME280;13479;49.044;8.716;2023-02-18T16:38:57;99493.50;;;13.98;53.50
25610;BME280;13479;49.044;8.716;2023-02-18T16:41:26;99498.72;;;14.00;53.69
25610;BME280;13479;49.044;8.716;2023-02-18T16:43:51;99493.78;;;14.05;53.63
25610;BME280;13479;49.044;8.716;2023-02-18T16:46:20;99493.66;;;13.97;54.26
25610;BME280;13479;49.044;8.716;2023-02-18T16:48:48;99508.97;;;13.95;54.02
25610;BME280;13479;49.044;8.716;2023-02-18T16:51:17;99505.91;;;13.89;54.43
25610;BME280;13479;49.044;8.716;2023-02-18T16:53:45;99495.91;;;13.92;54.48
25610;BME280;13479;49.044;8.716;2023-02-18T16:56:21;99510.38;;;13.79;54.70
25610;BME280;13479;49.044;8.716;2023-02-18T16:58:47;99495.63;;;13.65;55.46
25610;BME280;13479;49.044;8.716;2023-02-18T17:01:26;99496.63;;;13.74;55.13
25610;BME280;13479;49.044;8.716;2023-02-18T17:03:53;99509.13;;;13.64;55.57
25610;BME280;13479;49.044;8.716;2023-02-18T17:06:19;99506.88;;;13.59;55.69
25610;BME280;13479;49.044;8.716;2023-02-18T17:08:45;99500.84;;;13.57;56.08
25610;BME280;13479;49.044;8.716;2023-02-18T17:11:16;99504.34;;;13.57;55.58
25610;BME280;13479;49.044;8.716;2023-02-18T17:13:44;99481.97;;;13.39;56.66
25610;BME280;13479;49.044;8.716;2023-02-18T17:16:10;99508.66;;;13.39;56.19
25610;BME280;13479;49.044;8.716;2023-02-18T17:18:35;99516.09;;;13.35;56.54
25610;BME280;13479;49.044;8.716;2023-02-18T17:21:00;99523.22;;;13.35;56.80
25610;BME280;13479;49.044;8.716;2023-02-18T17:23:27;99518.19;;;13.32;56.76
25610;BME280;13479;49.044;8.716;2023-02-18T17:25:52;99516.47;;;13.21;57.06
25610;BME280;13479;49.044;8.716;2023-02-18T17:28:18;99524.88;;;13.16;57.16
25610;BME280;13479;49.044;8.716;2023-02-18T17:30:46;99528.53;;;13.15;57.57
25610;BME280;13479;49.044;8.716;2023-02-18T17:33:14;99532.19;;;13.14;57.70
25610;BME280;13479;49.044;8.716;2023-02-18T17:35:41;99533.31;;;13.11;57.81
25610;BME280;13479;49.044;8.716;2023-02-18T17:38:14;99544.63;;;13.04;58.03
25610;BME280;13479;49.044;8.716;2023-02-18T17:40:40;99544.78;;;13.02;58.28
25610;BME280;13479;49.044;8.716;2023-02-18T17:43:05;99557.66;;;12.97;58.41
25610;BME280;13479;49.044;8.716;2023-02-18T17:45:41;99563.56;;;13.01;58.01
25610;BME280;13479;49.044;8.716;2023-02-18T17:48:08;99563.56;;;13.01;58.19
25610;BME280;13479;49.044;8.716;2023-02-18T17:50:33;99554.25;;;12.85;58.37
25610;BME280;13479;49.044;8.716;2023-02-18T17:52:59;99571.06;;;12.76;58.79
25610;BME280;13479;49.044;8.716;2023-02-18T17:55:29;99571.38;;;12.82;58.71
25610;BME280;13479;49.044;8.716;2023-02-18T17:57:54;99577.53;;;12.83;58.85
25610;BME280;13479;49.044;8.716;2023-02-18T18:00:23;99582.13;;;12.81;59.04
25610;BME280;13479;49.044;8.716;2023-02-18T18:02:48;99588.44;;;12.80;58.79
25610;BME280;13479;49.044;8.716;2023-02-18T18:05:25;99583.91;;;12.71;59.23
25610;BME280;13479;49.044;8.716;2023-02-18T18:07:52;99592.69;;;12.61;59.85
25610;BME280;13479;49.044;8.716;2023-02-18T18:10:19;99599.72;;;12.62;59.72
25610;BME280;13479;49.044;8.716;2023-02-18T18:12:46;99601.00;;;12.68;59.69
25610;BME280;13479;49.044;8.716;2023-02-18T18:17:45;99585.81;;;12.59;59.94
25610;BME280;13479;49.044;8.716;2023-02-18T18:20:10;99593.34;;;12.54;60.16
25610;BME280;13479;49.044;8.716;2023-02-18T18:22:35;99591.66;;;12.52;60.01
25610;BME280;13479;49.044;8.716;2023-02-18T18:25:01;99595.75;;;12.57;60.07
25610;BME280;13479;49.044;8.716;2023-02-18T18:27:28;99599.25;;;12.57;59.81
25610;BME280;13479;49.044;8.716;2023-02-18T18:29:53;99609.06;;;12.57;59.70
25610;BME280;13479;49.044;8.716;2023-02-18T18:32:19;99603.22;;;12.63;59.63
25610;BME280;13479;49.044;8.716;2023-02-18T18:34:46;99595.91;;;12.55;59.95
25610;BME280;13479;49.044;8.716;2023-02-18T18:37:11;99623.69;;;12.62;59.57
25610;BME280;13479;49.044;8.716;2023-02-18T18:39:37;99619.97;;;12.54;60.15
25610;BME280;13479;49.044;8.716;2023-02-18T18:42:02;99618.63;;;12.59;60.46
25610;BME280;13479;49.044;8.716;2023-02-18T18:44:27;99628.16;;;12.62;60.26
25610;BME280;13479;49.044;8.716;2023-02-18T18:46:53;99638.81;;;12.62;60.01
25610;BME280;13479;49.044;8.716;2023-02-18T18:49:18;99637.41;;;12.58;60.27
25610;BME280;13479;49.044;8.716;2023-02-18T18:51:43;99630.72;;;12.63;60.07
25610;BME280;13479;49.044;8.716;2023-02-18T18:54:10;99612.13;;;12.52;60.68
25610;BME280;13479;49.044;8.716;2023-02-18T18:56:36;99619.41;;;12.50;60.52
25610;BME280;13479;49.044;8.716;2023-02-18T18:59:02;99624.72;;;12.50;60.54
25610;BME280;13479;49.044;8.716;2023-02-18T19:01:28;99623.28;;;12.46;60.51
25610;BME280;13479;49.044;8.716;2023-02-18T19:03:53;99634.75;;;12.58;60.53
25610;BME280;13479;49.044;8.716;2023-02-18T19:06:19;99644.09;;;12.52;60.47
25610;BME280;13479;49.044;8.716;2023-02-18T19:08:45;99626.91;;;12.45;60.70
25610;BME280;13479;49.044;8.716;2023-02-18T19:11:12;99631.22;;;12.57;60.21
25610;BME280;13479;49.044;8.716;2023-02-18T19:13:38;99630.88;;;12.50;60.53
25610;BME280;13479;49.044;8.716;2023-02-18T19:16:25;99637.84;;;12.63;60.20
25610;BME280;13479;49.044;8.716;2023-02-18T19:18:51;99639.47;;;12.54;60.03
25610;BME280;13479;49.044;8.716;2023-02-18T19:21:18;99649.41;;;12.52;60.08
25610;BME280;13479;49.044;8.716;2023-02-18T19:23:43;99640.97;;;12.47;60.65
25610;BME280;13479;49.044;8.716;2023-02-18T19:26:08;99635.53;;;12.48;60.45
25610;BME280;13479;49.044;8.716;2023-02-18T19:28:34;99632.97;;;12.47;60.22
25610;BME280;13479;49.044;8.716;2023-02-18T19:30:59;99615.88;;;12.28;61.07
25610;BME280;13479;49.044;8.716;2023-02-18T19:33:24;99614.53;;;12.34;60.89
25610;BME280;13479;49.044;8.716;2023-02-18T19:35:50;99616.81;;;12.39;61.14
25610;BME280;13479;49.044;8.716;2023-02-18T19:38:16;99633.94;;;12.46;60.82
25610;BME280;13479;49.044;8.716;2023-02-18T19:40:43;99628.91;;;12.43;60.83
25610;BME280;13479;49.044;8.716;2023-02-18T19:43:10;99637.00;;;12.41;60.60
25610;BME280;13479;49.044;8.716;2023-02-18T19:45:40;99626.63;;;12.38;60.97
25610;BME280;13479;49.044;8.716;2023-02-18T19:48:05;99641.75;;;12.38;61.15